createdAt,value
2023-05-11T00:06:56.295Z,18.68
2023-05-11T00:17:02.723Z,18.68
2023-05-11T00:27:09.000Z,18.64
2023-05-11T00:37:15.926Z,18.68
2023-05-11T00:47:23.335Z,18.68
2023-05-11T00:57:29.967Z,18.68
2023-05-11T01:07:37.089Z,18.66
2023-05-11T01:17:44.210Z,18.62
2023-05-11T01:27:51.603Z,18.64
2023-05-11T01:37:58.592Z,18.62
2023-05-11T01:48:05.025Z,18.62
2023-05-11T01:58:11.495Z,18.62
2023-05-11T02:08:18.369Z,18.62
2023-05-11T02:18:25.316Z,18.59
2023-05-11T02:28:31.718Z,18.59
2023-05-11T02:38:38.455Z,18.59
2023-05-11T02:48:45.716Z,18.59
2023-05-11T02:58:52.761Z,18.59
2023-05-11T03:08:59.867Z,18.56
2023-05-11T03:19:06.603Z,18.56
2023-05-11T03:29:12.584Z,18.57
2023-05-11T03:39:19.078Z,18.56
2023-05-11T03:49:27.097Z,18.55
2023-05-11T03:59:33.887Z,18.55
2023-05-11T04:09:41.283Z,18.53
2023-05-11T04:19:48.285Z,18.54
2023-05-11T04:29:54.791Z,18.54
2023-05-11T04:40:02.073Z,18.53
2023-05-11T04:50:09.622Z,18.62
2023-05-11T05:00:16.786Z,18.68
2023-05-11T05:10:24.097Z,18.68
2023-05-11T05:20:31.541Z,18.95
2023-05-11T05:30:38.314Z,18.95
2023-05-11T05:40:45.408Z,19.23
2023-05-11T05:50:53.180Z,19.23
2023-05-11T06:01:00.200Z,19.38
2023-05-11T06:11:07.680Z,19.62
2023-05-11T06:21:14.471Z,19.62
2023-05-11T06:31:21.872Z,19.79
2023-05-11T06:41:28.787Z,19.90
2023-05-11T06:51:35.764Z,19.90
2023-05-11T07:01:42.876Z,19.96
2023-05-11T07:11:50.076Z,20.10
2023-05-11T07:21:56.970Z,20.22
2023-05-11T07:32:05.133Z,20.34
2023-05-11T07:42:11.848Z,20.31
2023-05-11T07:52:18.967Z,20.31
2023-05-11T08:02:26.282Z,20.22
2023-05-11T08:12:33.680Z,20.22
2023-05-11T08:22:40.073Z,20.09
2023-05-11T08:32:57.809Z,20.09
2023-05-11T08:42:59.249Z,20.01
2023-05-11T08:53:06.525Z,19.95
2023-05-11T09:03:13.584Z,19.96
2023-05-11T09:13:20.952Z,19.96
2023-05-11T09:23:28.617Z,20.01
2023-05-11T09:33:35.261Z,20.00
2023-05-11T09:43:42.475Z,20.00
2023-05-11T09:53:49.338Z,20.00
2023-05-11T10:04:09.044Z,19.92
2023-05-11T10:14:08.472Z,19.91
2023-05-11T10:24:17.210Z,19.95
2023-05-11T10:34:26.660Z,19.91
2023-05-11T10:44:34.178Z,19.93
2023-05-11T10:54:40.583Z,19.93
2023-05-11T11:04:47.833Z,19.88
2023-05-11T11:14:54.924Z,19.95
2023-05-11T11:25:02.308Z,19.98
2023-05-11T11:35:10.261Z,20.00
2023-05-11T11:45:17.290Z,20.00
2023-05-11T11:55:24.266Z,20.05
2023-05-11T12:05:31.045Z,20.05
2023-05-11T12:15:37.831Z,20.12
2023-05-11T12:25:45.241Z,20.17
2023-05-11T12:35:52.154Z,20.17
2023-05-11T12:45:59.255Z,20.16
2023-05-11T12:56:06.352Z,20.20
2023-05-11T13:06:13.538Z,20.20
2023-05-11T13:16:20.231Z,20.27
2023-05-11T13:26:27.760Z,20.38
2023-05-11T13:36:35.572Z,20.42
2023-05-11T13:46:42.502Z,20.45
2023-05-11T13:56:49.768Z,20.39
2023-05-11T14:06:56.611Z,20.35
2023-05-11T14:17:04.864Z,20.35
2023-05-11T14:27:11.773Z,20.35
2023-05-11T14:37:18.735Z,20.34
2023-05-11T14:47:25.989Z,20.32
2023-05-11T14:57:32.854Z,20.32
2023-05-11T15:07:40.014Z,20.40
2023-05-11T15:17:46.848Z,20.40
2023-05-11T15:27:53.963Z,20.40
2023-05-11T15:38:01.153Z,20.29
2023-05-11T15:48:08.371Z,20.25
2023-05-11T15:58:16.337Z,20.23
2023-05-11T16:08:23.312Z,20.20
2023-05-11T16:18:30.117Z,20.20
2023-05-11T16:28:37.559Z,20.08
2023-05-11T16:38:44.546Z,20.08
2023-05-11T16:48:51.790Z,20.00
2023-05-11T16:58:58.091Z,20.00
2023-05-11T17:09:05.380Z,19.92
2023-05-11T17:19:12.371Z,19.92
2023-05-11T17:29:19.879Z,19.85
2023-05-11T17:39:27.274Z,19.85
2023-05-11T17:49:34.522Z,19.85
2023-05-11T17:59:41.394Z,19.81
2023-05-11T18:09:48.391Z,19.78
2023-05-11T18:19:55.461Z,19.73
2023-05-11T18:30:01.634Z,19.66
2023-05-11T18:40:09.040Z,19.61
2023-05-11T18:50:16.139Z,19.55
2023-05-11T19:00:23.058Z,19.53
2023-05-11T19:10:29.849Z,19.53
2023-05-11T19:20:38.565Z,19.45
2023-05-11T19:30:45.977Z,19.45
2023-05-11T19:40:53.456Z,19.44
2023-05-11T19:51:01.015Z,19.42
2023-05-11T20:01:07.960Z,19.42
2023-05-11T20:11:14.872Z,19.39
2023-05-11T20:21:22.121Z,19.39
2023-05-11T20:31:29.425Z,19.34
2023-05-11T20:41:36.360Z,19.34
2023-05-11T20:51:43.490Z,19.34
2023-05-11T21:01:50.602Z,19.34
2023-05-11T21:11:57.696Z,19.31
2023-05-11T21:22:04.774Z,19.31
2023-05-11T21:32:11.611Z,19.30
2023-05-11T21:42:18.620Z,19.31
2023-05-11T21:52:25.832Z,19.29
2023-05-11T22:02:32.748Z,19.30
2023-05-11T22:12:39.666Z,19.30
2023-05-11T22:22:47.103Z,19.27
2023-05-11T22:32:54.431Z,19.27
2023-05-11T22:43:01.957Z,19.27
2023-05-11T22:53:09.175Z,19.27
2023-05-11T23:03:16.486Z,19.27
2023-05-11T23:13:24.134Z,19.27
2023-05-11T23:23:31.064Z,19.25
2023-05-11T23:33:38.248Z,19.25
2023-05-11T23:43:45.321Z,19.27
2023-05-11T23:53:52.084Z,19.25
